Soaring Guidance
Issued by NWS Reno, NV

Home | Current Version | Previous Version | Text Only | Print | Product List | Glossary On
Versions: 1 2 3 4 5 6 7
000
UXUS97 KREV 191448
SRGREV

SOARING FORECAST
NATIONAL WEATHER SERVICE - RENO NV
700 AM PST SUN FEB 19 2017

THIS SOARING FORECAST IS FOR THE EASTERN SIERRA AND WESTERN NEVADA
WITH SPECIFIC INDICES FOR THE GREATER RENO AREA.

THIS FORECAST IS PREPARED DAILY BY 700 AM AND IS NOT UPDATED.

FOR CURRENT FLIGHT CONDITIONS...FORECASTS...AND ADVISORIES...ACCESS
YOUR LOCAL BRIEFING OUTLET OR FLIGHT SERVICE STATION.

*******************************************************************
FORECASTED LOCAL INDICES FOR RENO:        TODAY     YESTERDAY
FORECASTED MAX TEMP AT RENO (DEG F).....     53          53
FORECASTED TRIGGER TEMPERATURE (DEG F)..     45          48
   EXCEEDED YESTERDAY BY 1155 AM PST
FORECASTED MAXIMUM ALTITUDE (FT MSL)....  12200        8600
FORECASTED SOARING INDEX (FPM)..........    546         288
FORECASTED K-INDEX.........VALID 18Z....     18          MM
FORECASTED K-INDEX.........VALID 00Z....     21          MM
FORECASTED LIFTED INDEX....VALID 18Z....      1           0
FORECASTED LIFTED INDEX....VALID 00Z....      4           0

AFTERNOON WINDS ALOFT FORECAST
MSL (FT) WIND/TEMP
9000  2431/-01
10000 2429/-03
12000 2425/-08
14000 2531/-11
16000 2739/-15
18000 2963/-19
24000 2899/-30
30000 7919/-39
34000 7829/-42
39000 7826/-48

SLIDE MOUNTAIN DATA:
     DATE       TIME     TEMP  DEWPT   RH         WIND (MPH)
                        (F)   (F)           | DIR  SPEED GUST
2017-02-19    05:30      16    15     93    | 209    8   10
2017-02-19    05:20      16    14     93    | 209    9   12
2017-02-19    05:00      15    14     93    | 209   10   13
2017-02-19    04:50      15    14     93    | 209   12   15

RENO TAF FORECAST:
KRNO 191127Z 1912/2012 27011G19KT P6SM SCT060 BKN110
     FM191700 23014G28KT P6SM SCT070 BKN120
     FM192000 23018G32KT P6SM SCT080 BKN150
     FM200400 22011G19KT P6SM SCT060 BKN110
     FM200900 20011G19KT 6SM -RA SCT040 OVC080

CARSON CITY TAF FORECAST:
KCXP 191127Z 1912/2012 22011G20KT P6SM SCT070 BKN120
     FM191700 23014G26KT P6SM SCT080 BKN140
     FM192000 23016G30KT P6SM SCT090 BKN150
     FM200300 22011G19KT P6SM SCT070 BKN110
     FM200800 19011G18KT 5SM -RA SCT035 OVC070 AMD NOT SKED

OUTLOOK FOR THE RENO-CARSON CITY-MINDEN AREA:
.WASHINGTONS BIRTHDAY...HEAVY RAIN. HIGHS 47 TO 52. SOUTH WINDS
15 TO 25 MPH WITH GUSTS UP TO 45 MPH.

SUNRISE AND SUNSET
FEBRUARY 19 2017......SUNRISE   646 AM PST   SUNSET   541 PM PST
FEBRUARY 20 2017......SUNRISE   644 AM PST   SUNSET   542 PM PST



USA.gov is the U.S. government's official web portal to all federal, state and local government web resources and services.